Latest Weather Observations for Scottsdale

IDT60801

Issued at 1:02 pm EDT Saturday 25 February 2017 (issued every 30 minutes, with the page automatically refreshed every 10 minutes)

About weather observations | Map of weather stations | Latest weather observations for TAS | Other Formats
Station Details ID: 091219 Name: SCOTTSDALE (WEST MINSTONE ROAD) Lat: -41.17 Lon: 147.49 Height: 197.5 m
Data from the previous 72 hours. | See also: Recent months at Scottsdale
Date/Time
EDT
Temp
°C
App
Temp
°C
Dew
Point
°C
Rel
Hum
%
Delta-T
°C
Wind Press
QNH
hPa
Press
MSL
hPa
Rain since
9am
mm
Dir  Spd
km/h
Gust
km/h
Spd
kts
Gust
kts
25/01:00pm 19.2 16.9 7.5 46 6.0 NW 9 15 5 8 1025.2 - 0.0
25/12:30pm 18.0 15.3 7.3 49 5.4 N 11 17 6 9 1025.5 - 0.0
25/12:00pm 17.8 15.5 7.3 50 5.3 N 9 17 5 9 1025.7 1025.3 0.0
25/11:30am 17.1 15.2 7.6 53 4.8 WNW 7 11 4 6 1025.9 - 0.0
25/11:00am 16.1 14.2 8.9 62 3.7 NNW 9 13 5 7 1026.1 - 0.0
25/10:30am 16.1 14.8 9.2 63 3.6 NNW 6 9 3 5 1026.2 - 0.0
25/10:00am 15.3 13.8 9.1 66 3.2 N 7 11 4 6 1026.0 - 0.0
25/09:30am 15.2 14.1 8.5 64 3.4 N 4 7 2 4 1025.9 - 0.0
25/09:00am 14.1 13.3 8.3 68 2.9 NNE 2 6 1 3 1025.8 1025.4 0.0
25/08:30am 13.6 13.4 9.1 74 2.3 CALM 0 0 0 0 1025.6 - 0.0
25/08:00am 13.1 12.2 9.4 78 1.9 WNW 4 7 2 4 1025.2 - 0.0
25/07:30am 12.6 12.6 9.7 82 1.5 CALM 0 0 0 0 1024.9 - 0.0
25/07:00am 12.5 11.7 9.6 82 1.5 W 4 7 2 4 1024.6 - 0.0
25/06:30am 12.5 11.7 9.6 82 1.5 WNW 4 7 2 4 1024.3 - 0.0
25/06:00am 12.1 12.2 10.0 87 1.1 CALM 0 0 0 0 1024.1 1023.7 0.0
25/05:30am 12.7 12.7 9.8 82 1.5 CALM 0 6 0 3 1023.7 - 0.0
25/05:00am 13.1 12.7 9.6 79 1.8 SSE 2 7 1 4 1023.5 - 0.0
25/04:30am 13.1 11.2 9.0 76 2.1 E 9 13 5 7 1023.4 - 0.0
25/04:00am 13.2 10.6 9.5 78 1.9 E 13 15 7 8 1023.5 - 0.0
25/03:30am 13.4 11.4 10.1 80 1.7 ENE 11 13 6 7 1023.4 - 0.0
25/03:00am 13.7 11.5 10.7 82 1.6 E 13 19 7 10 1023.4 1023.0 0.0
25/02:30am 13.9 12.4 10.7 81 1.7 E 9 13 5 7 1023.5 - 0.0
25/02:00am 13.9 12.1 10.7 81 1.7 E 11 15 6 8 1023.4 - 0.0
25/01:30am 14.1 13.0 10.7 80 1.8 ESE 7 11 4 6 1023.5 - 0.0
25/01:00am 14.3 12.0 10.3 77 2.1 ENE 13 19 7 10 1023.4 - 0.0
25/12:30am 14.2 10.8 10.4 78 2.0 ENE 19 24 10 13 1022.9 - 0.0
25/12:00am 14.5 11.6 9.7 73 2.5 E 15 20 8 11 1023.0 1022.8 0.0
 
Date/Time
EDT
Temp
°C
App
Temp
°C
Dew
Point
°C
Rel
Hum
%
Delta-T
°C
Wind Press
QNH
hPa
Press
MSL
hPa
Rain since
9am
mm
Dir  Spd
km/h
Gust
km/h
Spd
kts
Gust
kts
24/11:30pm 14.6 11.4 10.0 74 2.4 E 17 20 9 11 1022.9 - 0.0
24/11:00pm 14.6 12.3 11.8 83 1.5 E 15 22 8 12 1022.8 - 0.0
24/10:30pm 14.5 12.7 12.1 85 1.3 E 13 15 7 8 1022.7 - 0.0
24/10:00pm 14.0 12.9 11.8 86 1.2 E 9 15 5 8 1022.6 - 0.0
24/09:30pm 14.5 12.0 12.3 87 1.2 E 17 20 9 11 1022.3 - 0.0
24/09:00pm 14.4 11.9 12.2 87 1.2 E 17 22 9 12 1022.0 1021.7 0.0
24/08:30pm 14.8 13.0 12.0 83 1.5 E 13 20 7 11 1021.5 - 0.0
24/08:00pm 15.2 12.6 12.1 82 1.7 E 17 24 9 13 1021.1 - 0.0
24/07:30pm 15.9 12.4 12.3 79 2.0 E 22 32 12 17 1020.6 - 0.0
24/07:00pm 16.6 12.1 12.5 77 2.3 E 28 35 15 19 1020.1 - 0.0
24/06:30pm 17.6 13.5 12.6 72 2.8 E 26 35 14 19 1019.7 - 0.0
24/06:00pm 19.1 14.2 12.5 65 3.7 E 30 44 16 24 1019.0 1018.7 0.0
24/05:30pm 20.4 15.7 12.0 58 4.7 E 28 37 15 20 1018.6 - 0.0
24/05:00pm 23.7 19.2 6.3 32 9.0 SW 19 32 10 17 1018.1 - 0.0
24/04:30pm 24.4 20.6 7.4 33 9.0 WSW 17 28 9 15 1017.9 - 0.0
24/04:00pm 23.8 19.3 6.1 32 9.1 SW 19 26 10 14 1018.3 - 0.0
24/03:30pm 24.0 20.3 7.8 35 8.6 SW 17 22 9 12 1018.3 - 0.0
24/03:00pm 23.6 21.2 8.8 39 8.0 WNW 11 19 6 10 1018.3 1017.9 0.0
24/02:30pm 22.0 18.3 9.4 44 6.8 NNW 19 26 10 14 1018.4 - 0.0
24/02:00pm 22.2 20.2 10.2 46 6.6 WNW 11 17 6 9 1018.7 - 0.0
24/01:30pm 21.0 19.6 10.9 52 5.6 NNW 9 19 5 10 1018.9 - 0.0
24/01:00pm 20.6 19.6 11.0 54 5.3 WNW 7 11 4 6 1019.4 - 0.0
24/12:30pm 19.3 18.1 11.5 60 4.3 NE 9 13 5 7 1019.6 - 0.0
24/12:00pm 17.9 17.4 11.9 68 3.3 S 6 11 3 6 1020.0 1019.6 0.0
24/11:30am 16.4 15.8 11.8 74 2.5 ENE 6 7 3 4 1020.3 - 0.0
24/11:00am 16.1 15.5 11.7 75 2.4 SE 6 9 3 5 1020.1 - 0.0
24/10:30am 16.1 15.0 12.1 77 2.2 ESE 9 13 5 7 1020.2 - 0.0
24/10:00am 15.3 14.1 11.6 78 2.0 SE 9 13 5 7 1020.3 - 0.0
24/09:30am 14.5 13.4 11.9 84 1.4 SE 9 11 5 6 1020.2 - 0.0
24/09:00am 13.9 13.2 11.9 88 1.1 ESE 7 9 4 5 1020.1 1019.7 0.0
24/08:30am 13.2 13.9 12.3 94 0.5 CALM 0 0 0 0 1020.2 - 0.0
24/08:00am 13.3 13.7 12.6 95 0.4 ENE 2 7 1 4 1019.9 - 0.0
24/07:30am 13.0 12.4 12.3 95 0.4 E 7 9 4 5 1019.5 - 0.0
24/07:00am 12.8 12.7 12.1 95 0.4 ENE 4 7 2 4 1019.5 - 0.0
24/06:30am 12.7 11.6 12.1 96 0.3 NE 9 11 5 6 1019.3 - 0.0
24/06:00am 12.7 11.6 12.1 96 0.3 NE 9 11 5 6 1019.1 1018.8 0.0
24/05:30am 13.1 11.8 12.6 97 0.3 ENE 11 13 6 7 1019.0 - 0.0
24/05:00am 12.9 12.0 12.5 97 0.2 NE 9 15 5 8 1018.9 - 0.0
24/04:30am 12.2 11.5 12.0 99 0.1 ESE 7 9 4 5 1018.6 - 0.0
24/04:00am 10.3 9.1 9.5 95 0.4 ESE 6 7 3 4 1018.3 - 0.0
24/03:30am 11.4 9.6 11.0 97 0.2 SSE 11 13 6 7 1018.2 - 0.0
24/03:00am 11.1 9.3 10.9 99 0.1 SSE 11 15 6 8 1018.2 1017.8 0.0
24/02:30am 11.1 10.1 10.9 99 0.1 E 7 9 4 5 1018.3 - 0.0
24/02:00am 10.7 9.2 10.5 99 0.1 ESE 9 9 5 5 1018.5 - 0.0
24/01:30am 10.2 9.9 10.0 99 0.1 E 2 6 1 3 1018.7 - 0.0
24/01:00am 11.8 11.1 11.4 97 0.2 SW 6 7 3 4 1018.6 - 0.0
24/12:30am 10.7 10.1 10.5 99 0.1 E 4 9 2 5 1018.5 - 0.0
24/12:00am 10.6 9.5 10.0 96 0.3 E 6 7 3 4 1018.5 1018.1 0.0
 
Date/Time
EDT
Temp
°C
App
Temp
°C
Dew
Point
°C
Rel
Hum
%
Delta-T
°C
Wind Press
QNH
hPa
Press
MSL
hPa
Rain since
9am
mm
Dir  Spd
km/h
Gust
km/h
Spd
kts
Gust
kts
23/11:30pm 11.6 10.6 11.0 96 0.3 ESE 7 9 4 5 1018.4 - 0.0
23/11:00pm 12.5 12.7 11.8 95 0.4 E 2 6 1 3 1018.6 - 0.0
23/10:30pm 12.0 11.0 11.1 94 0.5 E 7 9 4 5 1018.5 - 0.0
23/10:00pm 13.3 13.2 12.0 92 0.7 NNW 4 7 2 4 1018.4 - 0.0
23/09:30pm 14.5 14.1 12.9 90 0.9 NNW 7 9 4 5 1018.4 - 0.0
23/09:00pm 14.5 14.0 12.7 89 1.0 NNW 7 11 4 6 1017.9 1017.6 0.0
23/08:30pm 15.9 14.9 13.4 85 1.4 WNW 11 15 6 8 1017.2 - 0.0
23/08:00pm 16.7 15.7 13.5 81 1.8 NNW 11 15 6 8 1016.6 - 0.0
23/07:30pm 18.2 16.7 13.1 72 2.9 NNW 13 19 7 10 1016.1 - 0.0
23/07:00pm 18.9 17.1 13.3 70 3.2 NW 15 20 8 11 1015.7 - 0.0
23/06:30pm 19.6 17.0 13.1 66 3.7 NW 19 28 10 15 1015.3 - 0.0
23/06:00pm 19.3 16.4 12.4 64 3.9 NW 19 28 10 15 1015.2 1014.8 0.0
23/05:30pm 19.6 17.2 12.7 64 3.9 WNW 17 24 9 13 1014.8 - 0.0
23/05:00pm 20.1 17.3 12.5 61 4.3 WNW 19 30 10 16 1014.4 - 0.0
23/04:30pm 20.2 17.1 12.2 60 4.5 WNW 20 32 11 17 1014.0 - 0.0
23/04:00pm 20.9 17.9 11.8 56 5.1 WNW 19 30 10 16 1013.9 - 0.0
23/03:30pm 20.1 16.7 11.3 57 4.9 WNW 20 35 11 19 1013.7 - 0.0
23/03:00pm 20.5 17.1 11.1 54 5.2 WNW 20 32 11 17 1013.6 1013.2 0.0
23/02:30pm 21.4 16.6 10.3 49 6.1 WNW 26 37 14 20 1013.7 - 0.0
23/02:00pm 22.4 18.3 10.2 46 6.7 NW 22 37 12 20 1013.6 - 0.0
23/01:30pm 22.5 18.5 9.0 42 7.3 WNW 20 33 11 18 1013.7 - 0.0
23/01:00pm 22.2 18.5 10.2 46 6.6 WNW 20 39 11 21 1013.7 - 0.0
23/12:30pm 21.0 17.8 11.1 53 5.5 WNW 19 32 10 17 1013.8 - 0.0
23/12:00pm 19.9 16.5 11.2 57 4.8 WNW 20 32 11 17 1013.7 1013.3 0.0
23/11:30am 19.2 15.5 11.4 60 4.3 WNW 22 41 12 22 1013.6 - 0.0
23/11:00am 19.1 15.2 10.7 58 4.6 WNW 22 35 12 19 1013.4 - 0.0
23/10:30am 18.6 15.0 10.5 59 4.4 WNW 20 35 11 19 1013.4 - 0.0
23/10:00am 18.0 14.0 10.4 61 4.1 WNW 22 43 12 23 1013.2 - 0.0
23/09:30am 18.1 14.2 10.7 62 4.0 WNW 22 39 12 21 1012.9 - 0.0
23/09:00am 17.4 13.9 12.2 71 2.9 WNW 22 39 12 21 1012.5 1012.0 0.0
23/08:30am 16.5 14.6 13.1 80 1.9 W 15 26 8 14 1012.1 - 0.0
23/08:00am 16.0 14.5 13.0 82 1.7 WNW 13 20 7 11 1011.7 - 0.0
23/07:30am 15.3 14.5 12.8 85 1.4 WNW 9 15 5 8 1011.3 - 0.0
23/07:00am 15.0 14.6 13.0 88 1.1 WNW 7 13 4 7 1010.8 - 0.0
23/06:30am 15.2 14.6 13.6 90 0.9 NW 9 13 5 7 1010.2 - 0.0
23/06:00am 15.6 15.2 14.2 91 0.8 NW 9 15 5 8 1009.8 1009.4 0.0
23/05:30am 15.4 15.3 14.0 91 0.8 NW 7 11 4 6 1009.6 - 0.0
23/05:00am 15.6 15.4 14.6 94 0.6 NNW 9 15 5 8 1009.4 - 0.0
23/04:30am 15.1 15.8 13.3 89 1.0 WSW 2 6 1 3 1009.3 - 0.0
23/04:00am 15.6 15.5 13.8 89 1.0 ESE 7 11 4 6 1008.8 - 0.0
23/03:30am 16.5 14.0 13.5 82 1.7 ESE 19 20 10 11 1008.8 - 0.0
23/03:00am 16.6 16.3 13.2 80 1.9 NNW 7 11 4 6 1010.0 1009.6 0.0
23/02:30am 16.3 14.7 12.9 80 1.9 S 13 15 7 8 1009.2 - 0.0
23/02:00am 17.0 14.9 12.5 75 2.5 SE 15 19 8 10 1008.9 - 0.0
23/01:30am 15.8 13.4 12.8 82 1.7 SE 17 20 9 11 1009.3 - 0.0
23/01:00am 15.4 13.7 13.5 88 1.1 SSE 15 20 8 11 1009.9 - 0.0
23/12:30am 16.3 14.6 14.6 90 1.0 SE 17 19 9 10 1010.5 - 0.0
23/12:00am 16.6 15.4 15.1 91 0.9 ESE 15 20 8 11 1011.2 1010.8 0.0
 
Date/Time
EDT
Temp
°C
App
Temp
°C
Dew
Point
°C
Rel
Hum
%
Delta-T
°C
Wind Press
QNH
hPa
Press
MSL
hPa
Rain since
9am
mm
Dir  Spd
km/h
Gust
km/h
Spd
kts
Gust
kts
22/11:30pm 15.9 15.0 14.9 94 0.6 ESE 13 15 7 8 1011.6 - 0.0
22/11:00pm 16.1 15.7 15.1 94 0.6 SE 11 15 6 8 1012.0 - 0.0
22/10:30pm 16.2 15.7 15.0 93 0.7 SE 11 13 6 7 1012.3 - 0.0
22/10:00pm 15.6 15.7 14.4 93 0.7 ESE 7 9 4 5 1012.8 - 0.0
22/09:30pm 16.1 15.5 14.7 91 0.8 ESE 11 15 6 8 1012.5 - 0.0
22/09:00pm 16.2 15.9 14.5 90 1.0 E 9 11 5 6 1012.9 1012.4 0.0
22/08:30pm 17.4 17.4 15.2 87 1.3 ENE 9 13 5 7 1012.7 - 0.0
22/08:00pm 19.6 18.6 15.6 78 2.4 NE 15 20 8 11 1012.5 - 0.0
22/07:30pm 20.5 19.4 15.3 72 3.1 NNE 15 22 8 12 1013.2 - 0.0
22/07:00pm 21.4 19.8 15.0 67 3.8 NE 17 24 9 13 1012.9 - 0.0
22/06:30pm 22.2 20.0 14.8 63 4.4 NNE 20 30 11 16 1012.7 - 0.0
22/06:00pm 21.7 19.3 13.8 60 4.6 NNE 19 24 10 13 1012.5 1012.0 0.0
22/05:30pm 22.2 19.2 12.0 52 5.8 NNE 19 24 10 13 1013.0 - 0.0
22/05:00pm 22.8 20.1 13.0 54 5.7 NNE 19 28 10 15 1013.5 - 0.0
22/04:30pm 23.7 20.6 12.2 48 6.6 N 20 26 11 14 1013.7 - 0.0
22/04:00pm 23.5 20.8 12.8 51 6.2 NE 19 28 10 15 1014.2 - 0.0
22/03:30pm 23.4 20.4 11.8 48 6.6 NNE 19 26 10 14 1014.7 - 0.0
22/03:00pm 23.5 20.4 11.5 47 6.8 N 19 26 10 14 1015.2 1014.8 0.0
22/02:30pm 23.1 19.2 9.3 41 7.5 N 20 30 11 16 1015.6 - 0.0
22/02:00pm 23.6 21.2 10.0 42 7.5 N 13 20 7 11 1016.1 - 0.0
22/01:30pm 22.4 20.0 10.0 45 6.8 N 13 22 7 12 1016.3 - 0.0

Other Formats:

Comma delimited format used in spreadsheet applications
http://www.bom.gov.au/fwo/IDT60801/IDT60801.94972.axf

JavaScript Object Notation format (JSON) in row-major order
http://www.bom.gov.au/fwo/IDT60801/IDT60801.94972.json